• Join FlightAware (Why Join?)
  • Login
  • US Flag 
Gobble Gobble! 
11:18AM EST


 

Airport Tracker/Info


-or-


 

Live Flight TrackerFlight Track Log ✈ N487VC ✈ 20-Apr-2013 ✈ KPVD - KHPN

Flight Track Log - Related Links

Times and Time Zones

All times are in EDT time to prevent confusion due to time zone crossing. See the N487VC flight status page for this flight to view local times or setup timezone preferences in your user account.

Time Position Orientation Groundspeed Altitude Reporting Facility
EDT Latitude Longitude Course Direction KTS MPH feet Rate Location/Type
05:12PM 41.7103 -71.4361 244° Southwest 152 175 600  Level Boston Center
05:13PM 41.6961 -71.4753 244° Southwest 156 180 1,800 780 Climbing Boston Center
05:14PM 41.6694 -71.5397 241° Southwest 204 235 2,100 660 Climbing Boston Center
05:15PM 41.6389 -71.6178 242° Southwest 203 234 3,300 840 Climbing Boston Center
05:16PM 41.6394 -71.6928 271° West 210 242 4,000 540 Climbing Boston Center
05:17PM 41.6439 -71.7706 274° West 224 258 4,500 720 Climbing Boston Center
05:18PM 41.6444 -71.8511 271° West 210 242 5,500 840 Climbing Boston Center
05:19PM 41.6425 -71.8761 264° West 208 239 5,700 240 Climbing Boston Center
05:20PM 41.6431 -71.9872 270° West 216 249 6,000 60 Climbing Boston Center
05:21PM 41.6411 -72.0706 268° West 215 247 5,900 -60 Descending Boston Center
05:22PM 41.6414 -72.1511 270° West 220 253 5,900  Level Boston Center
05:23PM 41.6417 -72.2344 270° West 222 255 5,900  Level Boston Center
05:24PM 41.6375 -72.3344 267° West 225 259 5,900  Level Boston Center
05:25PM 41.6083 -72.4067 242° Southwest 225 259 5,900  Level Boston Center
05:26PM 41.5792 -72.4761 241° Southwest 225 259 5,900  Level Boston Center
05:28PM 41.5000 -72.5500 215° Southwest 232 267 6,000  Climbing New York TRACON
05:29PM 41.4500 -72.5833 207° Southwest 236 272 6,000  Level New York TRACON
05:30PM 41.4000 -72.6333 217° Southwest 233 268 6,000  Level New York TRACON
05:31PM 41.3667 -72.7167 242° Southwest 230 265 6,000  Level New York TRACON
05:32PM 41.3333 -72.7833 236° Southwest 229 264 6,000  Level New York TRACON
05:33PM 41.2833 -72.8500 225° Southwest 228 262 6,000  Level New York TRACON
05:34PM 41.2500 -72.9167 236° Southwest 231 266 6,000  Level New York TRACON
05:35PM 41.2167 -73.0000 242° Southwest 230 265 6,000 -120 Level New York TRACON
05:36PM 41.1833 -73.0667 236° Southwest 229 264 5,800 -840 Descending New York TRACON
05:37PM 41.1667 -73.1500 255° West 241 277 4,400 -900 Descending New York TRACON
05:38PM 41.1667 -73.2333 270° West 227 261 4,000 -240 Descending New York TRACON
05:39PM 41.1667 -73.3167 270° West 222 255 4,000 -660 Level New York TRACON
05:40PM 41.1333 -73.3833 236° Southwest 245 282 2,700 -1,020 Descending New York TRACON
05:41PM 41.0833 -73.4333 217° Southwest 229 264 2,000 -360 Descending New York TRACON
05:42PM 41.0333 -73.4833 217° Southwest 219 252 2,000  Level New York TRACON
05:43PM 41.0000 -73.5500 236° Southwest 211 243 2,000  Level New York TRACON
05:44PM 40.9833 -73.6167 252° West 186 214 2,000 -300 Level New York TRACON
05:45PM 41.0167 -73.6667 311° West 161 185 1,400 -660 Descending New York TRACON
05:46PM 41.0500 -73.6833 339° North 110 127 700 -720 Descending New York TRACON